Time;durP1;ratioP1;P1;durP2;ratioP2;P2;SDS_P1;SDS_P2;PMS_P1;PMS_P2;Temp;Humidity;BMP_temperature;BMP_pressure;BME280_temperature;BME280_humidity;BME280_pressure;Samples;Min_cycle;Max_cycle;Signal;HPM_P1;HPM_P2
2021/10/17 00:07:51;;;;;;;4.53;2.28;;;10.70;99.90;;;;;;20912249;28;20054;-45
2021/10/17 00:17:53;;;;;;;3.53;1.95;;;10.70;99.90;;;;;;20878734;28;20026;-45
2021/10/17 00:27:54;;;;;;;5.68;1.80;;;10.70;99.90;;;;;;20852306;28;20048;-45
2021/10/17 00:37:55;;;;;;;5.03;2.05;;;10.60;99.90;;;;;;20831739;28;20052;-45
2021/10/17 00:47:58;;;;;;;8.80;2.58;;;10.70;99.90;;;;;;20838031;28;20090;-45
2021/10/17 00:58:01;;;;;;;6.07;2.20;;;10.70;99.90;;;;;;20837371;28;20041;-45
2021/10/17 01:08:02;;;;;;;5.00;1.80;;;10.60;99.90;;;;;;20855920;28;20525;-45
2021/10/17 01:18:03;;;;;;;5.40;1.83;;;10.50;99.90;;;;;;20882811;28;20134;-45
2021/10/17 01:28:04;;;;;;;7.18;2.83;;;10.40;99.90;;;;;;20865738;28;20040;-45
2021/10/17 01:38:07;;;;;;;4.53;1.77;;;10.30;99.90;;;;;;20891160;28;20509;-45
2021/10/17 01:48:08;;;;;;;4.07;1.98;;;10.20;99.90;;;;;;20885480;28;20083;-45
2021/10/17 01:58:09;;;;;;;6.68;3.33;;;9.90;99.90;;;;;;20841658;28;20050;-45
2021/10/17 02:08:10;;;;;;;7.30;2.53;;;9.90;99.90;;;;;;20838937;28;20052;-46
2021/10/17 02:18:12;;;;;;;8.93;2.90;;;10.00;99.90;;;;;;20847621;28;20036;-45
2021/10/17 02:28:13;;;;;;;10.63;3.35;;;10.00;99.90;;;;;;20834147;28;20046;-45
2021/10/17 02:38:14;;;;;;;7.25;2.85;;;10.00;99.90;;;;;;21219010;23;20100;-81
2021/10/17 02:48:15;;;;;;;5.60;2.45;;;10.00;99.90;;;;;;20584032;28;20077;-81
2021/10/17 02:58:16;;;;;;;5.57;2.55;;;10.10;99.90;;;;;;20583652;28;20073;-81
2021/10/17 03:08:18;;;;;;;5.35;2.30;;;10.10;99.90;;;;;;20625644;28;20092;-81
2021/10/17 03:18:19;;;;;;;8.32;2.75;;;10.10;99.90;;;;;;20590635;28;23024;-81
2021/10/17 03:28:21;;;;;;;5.82;2.50;;;10.10;99.90;;;;;;20587827;28;20522;-81
2021/10/17 03:38:22;;;;;;;3.60;1.80;;;10.30;99.90;;;;;;20584506;28;20065;-81
2021/10/17 03:48:24;;;;;;;5.05;2.22;;;10.30;99.90;;;;;;20643927;28;20058;-80
2021/10/17 03:58:25;;;;;;;5.20;2.53;;;10.30;99.90;;;;;;20578075;28;20070;-80
2021/10/17 04:08:26;;;;;;;8.23;3.15;;;10.30;99.90;;;;;;20559589;28;20077;-80
2021/10/17 04:18:27;;;;;;;6.60;2.97;;;10.30;99.90;;;;;;20621810;28;20061;-80
2021/10/17 04:28:28;;;;;;;6.18;2.50;;;10.30;99.90;;;;;;20590024;28;20058;-80
2021/10/17 04:38:29;;;;;;;7.07;2.75;;;10.40;99.90;;;;;;20598411;28;20061;-81
2021/10/17 04:48:30;;;;;;;5.63;2.55;;;10.30;99.90;;;;;;20657468;28;20073;-81
2021/10/17 04:58:32;;;;;;;8.40;2.90;;;10.40;99.90;;;;;;20685438;28;20079;-81
2021/10/17 05:08:33;;;;;;;6.65;2.58;;;10.40;99.90;;;;;;20606994;28;20063;-81
2021/10/17 05:18:34;;;;;;;5.57;2.28;;;10.40;99.90;;;;;;20666266;28;20467;-81
2021/10/17 05:28:36;;;;;;;6.13;3.00;;;10.50;99.90;;;;;;20666393;28;20046;-80
2021/10/17 05:38:39;;;;;;;7.00;2.78;;;10.40;99.90;;;;;;20614720;28;20066;-81
2021/10/17 05:48:40;;;;;;;10.48;2.88;;;10.40;99.90;;;;;;20537834;28;20034;-81
2021/10/17 05:58:41;;;;;;;8.27;2.90;;;10.50;99.90;;;;;;20552427;28;20031;-81
2021/10/17 06:08:42;;;;;;;13.70;3.33;;;10.40;99.90;;;;;;20495016;28;20043;-81
2021/10/17 06:18:45;;;;;;;8.35;2.90;;;10.40;99.90;;;;;;20468569;28;20043;-80
2021/10/17 06:28:48;;;;;;;4.13;2.75;;;10.40;99.90;;;;;;20471857;28;20049;-80
2021/10/17 06:38:49;;;;;;;9.07;2.63;;;10.40;99.90;;;;;;20535451;28;20373;-80
2021/10/17 06:48:51;;;;;;;6.00;3.00;;;10.40;99.90;;;;;;20525124;28;20134;-80
2021/10/17 06:58:52;;;;;;;9.63;3.13;;;10.40;99.90;;;;;;20495578;28;20134;-79
2021/10/17 07:08:53;;;;;;;6.20;2.97;;;10.60;99.90;;;;;;20503199;28;20031;-80
2021/10/17 07:18:55;;;;;;;9.52;3.17;;;10.70;99.90;;;;;;20534820;28;20556;-82
2021/10/17 07:28:56;;;;;;;4.55;2.20;;;10.70;99.90;;;;;;20519934;28;20050;-79
2021/10/17 07:38:57;;;;;;;8.18;2.55;;;10.80;99.90;;;;;;20498417;28;20057;-79
2021/10/17 07:49:00;;;;;;;6.43;2.78;;;10.80;99.90;;;;;;20472516;28;20286;-80
2021/10/17 07:59:01;;;;;;;9.77;3.03;;;10.90;99.90;;;;;;20499380;28;20040;-79
2021/10/17 08:09:13;;;;;;;5.50;2.50;;;10.80;99.90;;;;;;20526338;28;20058;-79
2021/10/17 08:19:14;;;;;;;6.47;2.50;;;10.90;99.90;;;;;;20501467;28;20035;-80
2021/10/17 08:29:15;;;;;;;6.18;2.60;;;11.10;99.90;;;;;;20516954;28;20106;-81
2021/10/17 08:39:16;;;;;;;7.63;2.83;;;11.10;99.90;;;;;;20487896;28;20067;-80
2021/10/17 08:59:28;;;;;;;6.82;2.78;;;11.20;99.90;;;;;;21042729;23;21196;-80
2021/10/17 09:09:29;;;;;;;6.65;2.20;;;11.40;99.90;;;;;;20576829;28;20038;-81
2021/10/17 09:19:32;;;;;;;7.20;2.78;;;11.50;99.90;;;;;;20542400;28;20038;-81
2021/10/17 09:29:34;;;;;;;6.50;2.70;;;11.80;99.90;;;;;;20591728;28;20042;-80
2021/10/17 09:39:39;;;;;;;6.00;3.10;;;12.20;99.90;;;;;;20550742;28;20130;-81
2021/10/17 09:49:41;;;;;;;7.00;2.78;;;12.70;99.90;;;;;;20547813;28;20026;-82
2021/10/17 09:59:42;;;;;;;6.53;2.85;;;13.10;99.90;;;;;;20563584;28;20042;-82
2021/10/17 10:09:47;;;;;;;5.72;2.50;;;13.30;99.90;;;;;;20528706;28;20039;-81
2021/10/17 10:19:48;;;;;;;5.85;2.33;;;13.50;99.90;;;;;;20570958;28;20393;-81
2021/10/17 10:29:50;;;;;;;8.68;2.22;;;14.00;99.90;;;;;;20581201;28;20046;-82
2021/10/17 10:40:00;;;;;;;5.72;2.45;;;14.10;99.90;;;;;;20520982;28;20042;-82
2021/10/17 10:50:02;;;;;;;7.82;2.50;;;14.30;99.90;;;;;;20601882;28;20046;-82
2021/10/17 11:00:07;;;;;;;5.25;2.17;;;14.40;99.90;;;;;;20536041;28;20056;-82
2021/10/17 11:10:21;;;;;;;6.28;2.72;;;14.50;99.90;;;;;;20494386;28;20114;-81
2021/10/17 11:20:25;;;;;;;6.72;2.42;;;14.80;99.90;;;;;;20529283;28;20352;-82
2021/10/17 11:30:35;;;;;;;4.95;1.98;;;14.80;99.90;;;;;;20474999;28;20035;-82
2021/10/17 11:40:37;;;;;;;8.18;2.80;;;14.60;99.90;;;;;;20494355;28;20057;-81
2021/10/17 11:50:47;;;;;;;7.93;2.50;;;14.40;99.90;;;;;;20469631;28;20047;-81
2021/10/17 12:00:50;;;;;;;5.80;2.20;;;14.20;99.90;;;;;;20559270;28;20642;-81
2021/10/17 12:11:07;;;;;;;3.78;1.90;;;14.20;99.90;;;;;;20542204;28;20049;-81
2021/10/17 12:21:10;;;;;;;6.13;1.97;;;14.10;99.90;;;;;;20540189;28;20046;-81
2021/10/17 12:31:11;;;;;;;4.63;1.98;;;14.30;99.90;;;;;;20528636;28;20079;-81
2021/10/17 12:41:15;;;;;;;5.63;1.85;;;14.60;99.90;;;;;;20556952;28;20053;-81
2021/10/17 12:51:28;;;;;;;4.00;1.85;;;14.60;99.90;;;;;;20523219;28;20050;-81
2021/10/17 13:01:29;;;;;;;4.55;1.73;;;14.50;99.90;;;;;;20589193;28;20526;-82
2021/10/17 13:11:35;;;;;;;4.50;2.00;;;14.50;99.90;;;;;;20564174;28;20045;-82
2021/10/17 13:21:37;;;;;;;4.07;1.70;;;14.40;99.90;;;;;;20569566;28;20042;-81
2021/10/17 13:31:38;;;;;;;3.10;1.25;;;14.40;99.90;;;;;;20583897;28;20034;-82
2021/10/17 13:41:39;;;;;;;2.40;1.23;;;14.50;99.90;;;;;;20522441;28;20743;-80
2021/10/17 13:51:40;;;;;;;5.50;1.60;;;14.60;99.90;;;;;;20546907;28;20052;-81
2021/10/17 14:01:41;;;;;;;2.00;1.00;;;14.60;99.90;;;;;;20564875;28;20461;-81
2021/10/17 14:11:43;;;;;;;3.05;1.27;;;14.60;99.90;;;;;;20629132;28;20057;-80
2021/10/17 14:21:44;;;;;;;7.93;1.77;;;14.50;99.90;;;;;;20637353;28;20123;-80
2021/10/17 14:31:45;;;;;;;5.78;1.25;;;14.50;99.90;;;;;;20701692;28;20201;-80
2021/10/17 14:41:47;;;;;;;7.78;2.25;;;14.40;99.90;;;;;;20720242;28;20056;-80
2021/10/17 14:51:48;;;;;;;4.10;1.63;;;14.30;99.90;;;;;;20692832;28;20128;-81
2021/10/17 15:01:49;;;;;;;2.95;1.42;;;14.20;99.90;;;;;;20648086;28;20382;-80
2021/10/17 15:11:50;;;;;;;3.42;1.45;;;14.30;99.90;;;;;;20720254;28;20035;-80
2021/10/17 15:21:51;;;;;;;4.28;1.33;;;14.20;99.90;;;;;;20704436;28;20085;-80
2021/10/17 15:31:53;;;;;;;3.10;1.45;;;14.10;99.90;;;;;;20679776;28;20036;-80
2021/10/17 15:41:54;;;;;;;4.53;1.55;;;14.00;99.90;;;;;;20681227;28;20048;-80
2021/10/17 15:51:55;;;;;;;3.80;1.77;;;13.90;99.90;;;;;;20679722;28;20051;-80
2021/10/17 16:01:58;;;;;;;4.88;1.77;;;13.90;99.90;;;;;;20553674;28;20046;-80
2021/10/17 16:11:59;;;;;;;2.20;1.00;;;13.90;99.90;;;;;;20574283;28;20148;-80
2021/10/17 16:22:02;;;;;;;4.15;1.80;;;13.70;99.90;;;;;;20568776;28;20604;-79
2021/10/17 16:32:05;;;;;;;6.00;1.90;;;13.70;99.90;;;;;;20587989;28;20043;-80
2021/10/17 16:42:06;;;;;;;5.05;1.88;;;13.60;99.90;;;;;;20596492;28;20046;-81
2021/10/17 16:52:07;;;;;;;5.80;1.70;;;13.50;99.90;;;;;;20572088;28;20059;-81
2021/10/17 17:02:09;;;;;;;4.47;1.48;;;13.40;99.90;;;;;;20723002;28;20031;-81
2021/10/17 17:12:10;;;;;;;3.38;1.60;;;13.20;99.90;;;;;;20685440;28;20037;-80
2021/10/17 17:22:11;;;;;;;7.03;2.08;;;13.10;99.90;;;;;;20721716;28;20460;-80
2021/10/17 17:32:12;;;;;;;6.53;1.65;;;13.00;99.90;;;;;;20730921;28;20033;-81
2021/10/17 17:42:13;;;;;;;6.32;1.95;;;13.00;99.90;;;;;;20719832;28;20073;-80
2021/10/17 17:52:14;;;;;;;2.47;1.25;;;13.00;99.90;;;;;;20652398;28;20607;-81
2021/10/17 18:02:16;;;;;;;3.85;1.50;;;13.00;99.90;;;;;;20749092;28;20060;-81
2021/10/17 18:12:17;;;;;;;4.25;2.13;;;13.00;99.90;;;;;;20694530;28;20028;-81
2021/10/17 18:22:19;;;;;;;5.72;2.67;;;12.90;99.90;;;;;;20712176;28;20050;-81
2021/10/17 18:32:20;;;;;;;6.38;1.88;;;12.60;99.90;;;;;;20711140;28;20043;-81
2021/10/17 18:42:21;;;;;;;9.23;2.40;;;12.70;99.90;;;;;;20717471;28;20049;-81
2021/10/17 18:52:23;;;;;;;6.72;2.90;;;12.70;99.90;;;;;;20722950;28;20076;-81
2021/10/17 19:02:24;;;;;;;6.57;2.60;;;12.70;99.90;;;;;;20733408;28;20065;-80
2021/10/17 19:12:25;;;;;;;5.47;1.98;;;12.60;99.90;;;;;;20697959;28;20045;-81
2021/10/17 19:22:27;;;;;;;4.72;2.13;;;12.50;99.90;;;;;;20732466;28;20055;-80
2021/10/17 19:32:28;;;;;;;8.27;3.17;;;12.60;99.90;;;;;;20679079;28;20422;-80
2021/10/17 19:42:29;;;;;;;6.45;2.55;;;12.50;99.90;;;;;;20685247;28;20045;-80
2021/10/17 19:52:30;;;;;;;3.92;2.08;;;12.40;99.90;;;;;;20738846;28;20907;-80
2021/10/17 20:02:33;;;;;;;6.63;2.58;;;12.30;99.90;;;;;;20697453;28;20064;-80
2021/10/17 20:12:34;;;;;;;6.25;2.35;;;12.20;99.90;;;;;;20713032;28;20287;-80
2021/10/17 20:22:35;;;;;;;6.50;2.63;;;12.10;99.90;;;;;;20699620;28;20046;-80
2021/10/17 20:32:36;;;;;;;6.85;2.67;;;11.90;99.90;;;;;;20717951;28;20038;-80
2021/10/17 20:42:38;;;;;;;4.18;2.47;;;11.90;99.90;;;;;;20696100;28;20048;-80
2021/10/17 20:52:39;;;;;;;7.03;2.78;;;11.80;99.90;;;;;;20724280;28;20045;-80
2021/10/17 21:02:40;;;;;;;7.32;3.30;;;11.90;99.90;;;;;;20768556;28;20088;-80
2021/10/17 21:12:42;;;;;;;6.88;3.05;;;12.00;99.90;;;;;;20774252;28;20504;-79
2021/10/17 21:22:44;;;;;;;6.60;3.10;;;12.00;99.90;;;;;;20722282;28;20050;-80
2021/10/17 21:32:45;;;;;;;7.13;2.60;;;12.00;99.90;;;;;;20757159;28;20079;-80
2021/10/17 21:42:49;;;;;;;7.85;3.38;;;12.00;99.90;;;;;;20740747;28;20042;-80
2021/10/17 21:52:50;;;;;;;11.73;3.47;;;12.00;99.90;;;;;;20660756;28;20045;-80
2021/10/17 22:02:51;;;;;;;7.00;2.90;;;12.00;99.90;;;;;;20741595;28;20531;-80
2021/10/17 22:12:53;;;;;;;6.50;2.95;;;12.00;99.90;;;;;;20714633;28;20034;-80
2021/10/17 22:22:55;;;;;;;6.05;2.55;;;12.00;99.90;;;;;;20709354;28;20049;-79
2021/10/17 22:32:56;;;;;;;13.13;3.47;;;12.00;99.90;;;;;;20707067;28;20044;-80
2021/10/17 22:42:57;;;;;;;6.45;3.22;;;12.00;99.90;;;;;;20702313;28;20766;-80
2021/10/17 22:52:58;;;;;;;8.43;3.05;;;12.00;99.90;;;;;;20711143;28;20561;-80
2021/10/17 23:03:00;;;;;;;9.63;4.03;;;11.90;99.90;;;;;;20697324;28;20049;-80
2021/10/17 23:13:01;;;;;;;7.35;3.10;;;11.90;99.90;;;;;;20712620;28;20528;-80
2021/10/17 23:23:02;;;;;;;7.53;3.47;;;11.80;99.90;;;;;;20718350;28;20090;-80
2021/10/17 23:33:06;;;;;;;14.00;3.70;;;11.80;99.90;;;;;;20714107;28;20517;-80
2021/10/17 23:43:07;;;;;;;7.50;3.08;;;11.70;99.90;;;;;;20730649;28;20047;-79
2021/10/17 23:53:09;;;;;;;5.43;2.78;;;11.50;99.90;;;;;;20708730;28;20037;-79
